createdAt,value
2022-10-16T00:00:15.599Z,87.25
2022-10-16T00:02:43.082Z,86.63
2022-10-16T00:05:10.554Z,88.96
2022-10-16T00:07:38.038Z,86.94
2022-10-16T00:10:07.754Z,85.64
2022-10-16T00:12:35.199Z,90.03
2022-10-16T00:15:02.581Z,89.94
2022-10-16T00:17:31.339Z,91.10
2022-10-16T00:19:58.799Z,90.53
2022-10-16T00:22:26.562Z,88.07
2022-10-16T00:24:54.568Z,89.05
2022-10-16T00:27:23.360Z,90.80
2022-10-16T00:29:52.058Z,89.34
2022-10-16T00:32:19.549Z,87.47
2022-10-16T00:34:47.307Z,89.37
2022-10-16T00:37:14.893Z,89.23
2022-10-16T00:39:42.312Z,89.57
2022-10-16T00:42:16.405Z,88.10
2022-10-16T00:44:48.560Z,87.74
2022-10-16T00:47:21.494Z,91.14
2022-10-16T00:49:52.485Z,89.52
2022-10-16T00:52:20.040Z,88.30
2022-10-16T00:54:48.798Z,87.79
2022-10-16T00:57:16.242Z,88.19
2022-10-16T00:59:44.592Z,88.65
2022-10-16T01:02:15.907Z,88.12
2022-10-16T01:04:45.250Z,89.71
2022-10-16T01:07:25.509Z,91.08
2022-10-16T01:10:07.223Z,88.00
2022-10-16T01:12:44.219Z,88.98
2022-10-16T01:15:21.477Z,88.39
2022-10-16T01:17:56.064Z,88.26
2022-10-16T01:20:29.459Z,87.09
2022-10-16T01:23:19.801Z,86.95
2022-10-16T01:26:08.126Z,87.98
2022-10-16T01:28:43.286Z,88.06
2022-10-16T01:31:13.168Z,87.43
2022-10-16T01:33:45.456Z,86.95
2022-10-16T01:36:17.184Z,87.02
2022-10-16T01:38:49.598Z,88.00
2022-10-16T01:41:22.187Z,87.31
2022-10-16T01:43:55.052Z,86.76
2022-10-16T01:46:24.116Z,91.61
2022-10-16T01:48:52.860Z,90.81
2022-10-16T01:51:22.552Z,91.71
2022-10-16T01:53:54.344Z,91.20
2022-10-16T01:56:24.134Z,91.10
2022-10-16T01:58:57.563Z,88.00
2022-10-16T02:01:28.672Z,87.18
2022-10-16T02:04:00.252Z,86.45
2022-10-16T02:06:27.948Z,86.22
2022-10-16T02:08:55.699Z,86.31
2022-10-16T02:11:23.161Z,89.68
2022-10-16T02:13:57.405Z,88.15
2022-10-16T02:16:34.582Z,89.21
2022-10-16T02:19:02.498Z,88.29
2022-10-16T02:21:34.984Z,88.84
2022-10-16T02:24:07.124Z,88.36
2022-10-16T02:26:42.610Z,87.30
2022-10-16T02:29:15.721Z,86.67
2022-10-16T02:31:48.227Z,85.83
2022-10-16T02:34:16.831Z,88.78
2022-10-16T02:36:46.497Z,86.88
2022-10-16T02:39:14.114Z,87.32
2022-10-16T02:41:41.525Z,86.20
2022-10-16T02:44:08.932Z,87.09
2022-10-16T02:46:37.640Z,88.23
2022-10-16T02:49:05.351Z,87.20
2022-10-16T02:51:32.749Z,86.19
2022-10-16T02:54:00.132Z,86.62
2022-10-16T02:56:27.532Z,87.52
2022-10-16T02:58:54.928Z,86.67
2022-10-16T03:01:22.390Z,86.80
2022-10-16T03:03:51.292Z,86.17
2022-10-16T03:06:18.680Z,88.56
2022-10-16T03:08:46.106Z,86.57
2022-10-16T03:11:13.472Z,86.92
2022-10-16T03:13:40.872Z,87.27
2022-10-16T03:16:08.288Z,89.03
2022-10-16T03:18:35.672Z,87.82
2022-10-16T03:21:04.535Z,87.70
2022-10-16T03:23:32.107Z,87.31
2022-10-16T03:25:59.935Z,87.99
2022-10-16T03:28:27.399Z,87.52
2022-10-16T03:30:54.844Z,87.88
2022-10-16T03:33:22.232Z,87.49
2022-10-16T03:35:53.881Z,87.61
2022-10-16T03:38:22.964Z,87.59
2022-10-16T03:40:50.463Z,87.32
2022-10-16T03:43:17.919Z,88.51
2022-10-16T03:45:45.339Z,87.79
2022-10-16T03:48:12.879Z,89.06
2022-10-16T03:50:40.290Z,88.73
2022-10-16T03:53:07.742Z,88.53
2022-10-16T03:55:36.828Z,88.85
2022-10-16T03:58:04.217Z,89.93
2022-10-16T04:00:31.645Z,89.40
2022-10-16T04:02:58.992Z,89.12
2022-10-16T04:05:26.416Z,90.34
2022-10-16T04:07:53.795Z,89.92
2022-10-16T04:10:21.205Z,89.63
2022-10-16T04:12:49.910Z,90.49
2022-10-16T04:15:17.320Z,89.90
2022-10-16T04:17:44.799Z,89.26
2022-10-16T04:20:12.231Z,89.65
2022-10-16T04:22:39.913Z,89.88
2022-10-16T04:25:07.856Z,90.17
2022-10-16T04:27:35.236Z,90.70
2022-10-16T04:30:04.332Z,89.63
2022-10-16T04:32:31.974Z,93.69
2022-10-16T04:34:59.390Z,94.04
2022-10-16T04:37:27.838Z,93.05
2022-10-16T04:39:56.021Z,91.40
2022-10-16T04:42:23.415Z,89.05
2022-10-16T04:44:50.793Z,88.90
2022-10-16T04:47:19.524Z,88.31
2022-10-16T04:49:46.900Z,87.62
2022-10-16T04:52:14.376Z,89.33
2022-10-16T04:54:41.764Z,90.47
2022-10-16T04:57:09.198Z,88.53
2022-10-16T04:59:36.858Z,89.84
2022-10-16T05:02:04.910Z,88.96
2022-10-16T05:04:33.651Z,89.53
2022-10-16T05:07:01.340Z,89.58
2022-10-16T05:09:28.720Z,89.05
2022-10-16T05:11:56.138Z,89.36
2022-10-16T05:14:23.507Z,89.46
2022-10-16T05:16:51.515Z,89.22
2022-10-16T05:19:27.656Z,89.77
2022-10-16T05:21:57.051Z,91.47
2022-10-16T05:24:24.507Z,89.81
2022-10-16T05:26:52.503Z,91.20
2022-10-16T05:29:20.082Z,92.00
2022-10-16T05:31:47.575Z,92.94
2022-10-16T05:34:15.037Z,90.96
2022-10-16T05:36:42.469Z,89.28
2022-10-16T05:39:11.188Z,89.59
2022-10-16T05:41:38.945Z,89.07
2022-10-16T05:44:07.496Z,88.79
2022-10-16T05:46:35.338Z,89.89
2022-10-16T05:49:03.132Z,88.72
2022-10-16T05:51:30.626Z,88.71
2022-10-16T05:53:58.035Z,88.26
2022-10-16T05:56:26.765Z,88.14
2022-10-16T05:58:54.163Z,88.10
2022-10-16T06:01:25.009Z,88.22
2022-10-16T06:03:53.312Z,88.63
2022-10-16T06:06:23.791Z,87.86
2022-10-16T06:08:51.745Z,88.45
2022-10-16T06:11:21.693Z,87.43
2022-10-16T06:13:52.532Z,88.26
2022-10-16T06:16:20.475Z,86.82
2022-10-16T06:18:48.568Z,86.89
2022-10-16T06:21:23.453Z,87.11
2022-10-16T06:23:50.869Z,87.20
2022-10-16T06:26:21.058Z,87.21
2022-10-16T06:28:49.110Z,87.61
2022-10-16T06:31:18.593Z,87.56
2022-10-16T06:33:46.722Z,87.38
2022-10-16T06:36:15.842Z,87.41
2022-10-16T06:38:43.840Z,87.52
2022-10-16T06:41:13.817Z,87.09
2022-10-16T06:43:41.270Z,87.62
2022-10-16T06:46:11.754Z,86.58
2022-10-16T06:48:40.640Z,87.03
2022-10-16T06:51:11.484Z,85.59
2022-10-16T06:54:01.081Z,89.39
2022-10-16T06:56:30.979Z,86.81
2022-10-16T06:58:58.786Z,86.42
2022-10-16T07:01:27.051Z,85.91
2022-10-16T07:03:55.888Z,85.94
2022-10-16T07:06:25.776Z,87.00
2022-10-16T07:08:53.768Z,85.74
2022-10-16T07:11:23.189Z,86.17
2022-10-16T07:13:54.827Z,85.78
2022-10-16T07:16:25.990Z,85.15
2022-10-16T07:18:58.770Z,84.93
2022-10-16T07:21:29.840Z,84.24
2022-10-16T07:23:59.562Z,84.59
2022-10-16T07:26:28.818Z,85.72
2022-10-16T07:28:56.412Z,84.57
2022-10-16T07:31:24.283Z,83.56
2022-10-16T07:33:52.796Z,88.89
2022-10-16T07:36:21.525Z,86.27
2022-10-16T07:38:52.816Z,84.09
2022-10-16T07:41:22.912Z,85.18
2022-10-16T07:43:51.628Z,84.00
2022-10-16T07:46:19.941Z,84.45
2022-10-16T07:48:49.150Z,83.45
2022-10-16T07:51:19.533Z,82.98
2022-10-16T07:53:47.695Z,83.04
2022-10-16T07:56:17.809Z,84.85
2022-10-16T07:58:45.318Z,84.50
2022-10-16T08:01:15.060Z,83.38
2022-10-16T08:03:44.383Z,84.94
2022-10-16T08:06:11.951Z,84.68
2022-10-16T08:08:39.968Z,83.76
2022-10-16T08:11:07.365Z,84.35
2022-10-16T08:13:36.172Z,84.81
2022-10-16T08:16:08.569Z,82.63
2022-10-16T08:18:36.996Z,82.62
2022-10-16T08:21:05.857Z,86.75
2022-10-16T08:23:34.612Z,86.66
2022-10-16T08:26:05.642Z,86.81
2022-10-16T08:28:33.370Z,84.91
2022-10-16T08:31:09.432Z,83.07
2022-10-16T08:33:37.413Z,81.93
2022-10-16T08:36:06.159Z,78.43
2022-10-16T08:38:33.791Z,79.84
2022-10-16T08:41:19.651Z,78.66
2022-10-16T08:44:05.909Z,78.19
2022-10-16T08:46:50.494Z,78.26
2022-10-16T08:49:18.974Z,79.50
2022-10-16T08:51:47.449Z,78.68
2022-10-16T08:54:25.354Z,78.52
2022-10-16T08:56:52.724Z,77.68
2022-10-16T08:59:21.132Z,78.02
2022-10-16T09:01:53.733Z,78.25
2022-10-16T09:04:52.886Z,77.44
2022-10-16T09:07:31.788Z,80.36
2022-10-16T09:10:13.377Z,79.96
2022-10-16T09:12:51.453Z,78.94
2022-10-16T09:15:26.591Z,77.32
2022-10-16T09:18:03.227Z,78.10
2022-10-16T09:20:41.708Z,76.90
2022-10-16T09:23:16.681Z,77.60
2022-10-16T09:25:48.535Z,79.11
2022-10-16T09:28:17.250Z,79.75
2022-10-16T09:30:45.051Z,77.52
2022-10-16T09:33:15.564Z,81.07
2022-10-16T09:35:46.070Z,81.16
2022-10-16T09:38:24.426Z,78.48
2022-10-16T09:40:58.966Z,78.08
2022-10-16T09:43:37.205Z,79.05
2022-10-16T09:46:07.432Z,80.30
2022-10-16T09:48:50.830Z,80.23
2022-10-16T09:51:23.673Z,79.58
2022-10-16T09:53:55.731Z,79.04
2022-10-16T09:56:25.311Z,79.39
2022-10-16T09:58:54.118Z,78.46
2022-10-16T10:01:22.685Z,78.24
2022-10-16T10:03:53.748Z,77.51
2022-10-16T10:06:25.718Z,78.03
2022-10-16T10:08:58.853Z,78.84
2022-10-16T10:11:46.613Z,80.88
2022-10-16T10:14:23.549Z,82.92
2022-10-16T10:16:51.907Z,81.23
2022-10-16T10:19:22.833Z,81.67
2022-10-16T10:21:52.402Z,79.04
2022-10-16T10:24:21.565Z,79.15
2022-10-16T10:26:56.520Z,78.61
2022-10-16T10:29:36.683Z,78.06
2022-10-16T10:32:13.836Z,79.58
2022-10-16T10:34:59.713Z,79.40
2022-10-16T10:37:43.128Z,77.85
2022-10-16T10:40:24.873Z,78.41
2022-10-16T10:43:01.299Z,76.94
2022-10-16T10:45:29.733Z,75.96
2022-10-16T10:48:09.508Z,75.86
2022-10-16T10:50:44.124Z,74.15
2022-10-16T10:53:23.548Z,74.87
2022-10-16T10:56:00.155Z,75.34
2022-10-16T10:58:52.612Z,74.81
2022-10-16T11:01:28.723Z,73.56
2022-10-16T11:04:11.229Z,73.46
2022-10-16T11:06:45.904Z,72.44
2022-10-16T11:09:18.460Z,71.79
2022-10-16T11:11:50.678Z,72.37
2022-10-16T11:14:23.092Z,73.30
2022-10-16T11:16:55.133Z,70.98
2022-10-16T11:19:33.657Z,69.41
2022-10-16T11:22:07.728Z,71.09
2022-10-16T11:24:43.478Z,71.69
2022-10-16T11:27:16.720Z,69.81
2022-10-16T11:29:51.028Z,71.01
2022-10-16T11:32:26.827Z,71.44
2022-10-16T11:35:01.101Z,70.21
2022-10-16T11:37:36.078Z,71.38
2022-10-16T11:40:21.042Z,71.57
2022-10-16T11:42:54.031Z,72.99
2022-10-16T11:45:31.772Z,71.15
2022-10-16T11:48:04.238Z,71.72
2022-10-16T11:50:39.397Z,71.84
2022-10-16T11:53:16.890Z,72.77
2022-10-16T11:55:47.153Z,71.36
2022-10-16T11:58:26.153Z,71.61
2022-10-16T12:01:00.784Z,70.90
2022-10-16T12:03:33.799Z,70.39
2022-10-16T12:06:15.727Z,70.76
2022-10-16T12:08:45.281Z,71.13
2022-10-16T12:11:26.481Z,70.35
2022-10-16T12:14:05.322Z,69.95
2022-10-16T12:16:32.798Z,69.61
2022-10-16T12:19:15.597Z,68.17
2022-10-16T12:21:43.755Z,67.91
2022-10-16T12:24:28.306Z,67.90
2022-10-16T12:26:56.145Z,67.05
2022-10-16T12:29:34.119Z,68.22
2022-10-16T12:32:02.498Z,67.45
2022-10-16T12:34:34.436Z,65.98
2022-10-16T12:37:12.053Z,67.10
2022-10-16T12:39:41.109Z,65.63
2022-10-16T12:42:23.934Z,66.33
2022-10-16T12:44:52.052Z,65.97
2022-10-16T12:47:25.571Z,66.17
2022-10-16T12:49:54.963Z,65.92
2022-10-16T12:52:29.020Z,66.71
2022-10-16T12:55:01.726Z,64.61
2022-10-16T12:57:43.254Z,64.50
2022-10-16T13:00:22.681Z,64.73
2022-10-16T13:03:15.087Z,63.99
2022-10-16T13:05:55.291Z,63.43
2022-10-16T13:08:36.393Z,64.63
2022-10-16T13:11:14.412Z,64.50
2022-10-16T13:14:00.648Z,63.46
2022-10-16T13:16:36.856Z,63.44
2022-10-16T13:19:17.780Z,63.21
2022-10-16T13:21:51.473Z,64.49
2022-10-16T13:24:33.149Z,64.50
2022-10-16T13:27:09.929Z,65.14
2022-10-16T13:29:37.662Z,64.22
2022-10-16T13:32:12.780Z,64.00
2022-10-16T13:34:47.079Z,64.75
2022-10-16T13:37:20.740Z,66.23
2022-10-16T13:39:48.586Z,65.17
2022-10-16T13:42:28.323Z,64.78
2022-10-16T13:44:58.163Z,65.55
2022-10-16T13:47:27.753Z,63.37
2022-10-16T13:50:03.346Z,62.32
2022-10-16T13:52:31.205Z,63.16
2022-10-16T13:55:01.791Z,63.66
2022-10-16T13:57:31.365Z,62.49
2022-10-16T13:59:58.834Z,63.11
2022-10-16T14:02:29.802Z,63.25
2022-10-16T14:04:59.489Z,62.97
2022-10-16T14:07:31.414Z,62.83
2022-10-16T14:10:05.784Z,62.25
2022-10-16T14:12:35.493Z,62.94
2022-10-16T14:15:03.473Z,62.23
2022-10-16T14:17:33.791Z,61.66
2022-10-16T14:20:06.426Z,61.79
2022-10-16T14:22:36.872Z,62.53
2022-10-16T14:25:21.643Z,62.88
2022-10-16T14:30:30.492Z,63.92
2022-10-16T14:32:59.595Z,62.35
2022-10-16T14:35:30.827Z,63.24
2022-10-16T14:38:00.459Z,62.94
2022-10-16T14:40:31.761Z,64.17
2022-10-16T14:43:01.190Z,63.60
2022-10-16T14:45:31.088Z,63.12
2022-10-16T14:48:01.336Z,64.59
2022-10-16T14:50:29.580Z,63.86
2022-10-16T14:52:57.246Z,62.86
2022-10-16T14:55:25.222Z,63.88
2022-10-16T14:57:56.875Z,63.34
2022-10-16T15:00:28.638Z,62.67
2022-10-16T15:02:56.019Z,63.15
2022-10-16T15:05:25.914Z,63.32
2022-10-16T15:07:55.854Z,62.83
2022-10-16T15:10:25.040Z,62.55
2022-10-16T15:12:52.520Z,62.63
2022-10-16T15:15:32.961Z,62.40
2022-10-16T15:18:01.891Z,63.71
2022-10-16T15:20:31.178Z,62.56
2022-10-16T15:22:58.578Z,63.39
2022-10-16T15:25:33.685Z,62.20
2022-10-16T15:28:01.358Z,62.27
2022-10-16T15:30:30.235Z,62.70
2022-10-16T15:32:58.004Z,61.99
2022-10-16T15:35:25.521Z,61.23
2022-10-16T15:37:52.964Z,62.22
2022-10-16T15:40:22.004Z,63.86
2022-10-16T15:42:49.458Z,60.97
2022-10-16T15:45:17.294Z,62.67
2022-10-16T15:47:46.121Z,63.32
2022-10-16T15:50:14.951Z,62.37
2022-10-16T15:52:43.214Z,62.32
2022-10-16T15:55:12.405Z,62.75
2022-10-16T15:57:41.627Z,62.67
2022-10-16T16:00:11.629Z,62.70
2022-10-16T16:02:39.220Z,62.21
2022-10-16T16:05:09.876Z,62.18
2022-10-16T16:07:38.293Z,62.01
2022-10-16T16:10:08.223Z,62.26
2022-10-16T16:12:35.884Z,62.47
2022-10-16T16:15:05.650Z,62.66
2022-10-16T16:17:34.313Z,64.09
2022-10-16T16:20:01.876Z,63.87
2022-10-16T16:22:31.084Z,63.25
2022-10-16T16:24:58.781Z,63.77
2022-10-16T16:27:26.973Z,63.53
2022-10-16T16:29:56.151Z,63.69
2022-10-16T16:32:23.896Z,63.73
2022-10-16T16:34:51.277Z,63.53
2022-10-16T16:37:18.959Z,62.92
2022-10-16T16:39:47.680Z,63.25
2022-10-16T16:42:15.176Z,63.14
2022-10-16T16:44:42.676Z,63.40
2022-10-16T16:47:11.818Z,63.69
2022-10-16T16:49:39.345Z,64.33
2022-10-16T16:52:06.711Z,64.69
2022-10-16T16:57:07.904Z,64.95
2022-10-16T16:59:35.393Z,64.46
2022-10-16T17:02:03.147Z,64.31
2022-10-16T17:04:30.612Z,64.26
2022-10-16T17:06:58.005Z,65.60
2022-10-16T17:09:25.678Z,66.49
2022-10-16T17:11:53.087Z,66.74
2022-10-16T17:14:21.874Z,66.85
2022-10-16T17:16:49.860Z,67.32
2022-10-16T17:19:19.336Z,67.04
2022-10-16T17:21:46.842Z,66.77
2022-10-16T17:24:14.308Z,68.52
2022-10-16T17:26:44.524Z,67.50
2022-10-16T17:29:13.652Z,66.44
2022-10-16T17:31:42.922Z,66.67
2022-10-16T17:34:12.161Z,67.13
2022-10-16T17:36:43.747Z,67.47
2022-10-16T17:39:14.690Z,68.17
2022-10-16T17:41:42.071Z,68.39
2022-10-16T17:44:09.577Z,68.55
2022-10-16T17:46:40.295Z,70.04
2022-10-16T17:49:11.088Z,69.55
2022-10-16T17:51:38.555Z,67.57
2022-10-16T17:54:07.332Z,67.00
2022-10-16T17:56:35.779Z,67.69
2022-10-16T17:59:04.785Z,68.08
2022-10-16T18:01:35.338Z,68.21
2022-10-16T18:04:07.280Z,68.78
2022-10-16T18:06:36.736Z,69.22
2022-10-16T18:09:06.323Z,69.42
2022-10-16T18:11:34.421Z,70.40
2022-10-16T18:14:02.249Z,69.92
2022-10-16T18:16:31.527Z,69.76
2022-10-16T18:18:59.999Z,69.62
2022-10-16T18:21:28.906Z,70.00
2022-10-16T18:24:01.163Z,68.96
2022-10-16T18:26:28.933Z,70.19
2022-10-16T18:28:58.270Z,69.34
2022-10-16T18:31:27.077Z,69.50
2022-10-16T18:33:55.706Z,70.27
2022-10-16T18:36:25.558Z,71.03
2022-10-16T18:38:53.579Z,71.35
2022-10-16T18:41:23.124Z,70.24
2022-10-16T18:43:50.570Z,70.59
2022-10-16T18:46:20.688Z,70.99
2022-10-16T18:48:49.994Z,71.43
2022-10-16T18:51:20.700Z,71.13
2022-10-16T18:53:50.328Z,71.20
2022-10-16T18:56:19.847Z,71.90
2022-10-16T18:58:49.593Z,71.65
2022-10-16T19:01:20.887Z,73.18
2022-10-16T19:03:49.018Z,73.47
2022-10-16T19:06:18.626Z,73.54
2022-10-16T19:08:45.999Z,73.79
2022-10-16T19:11:15.326Z,73.24
2022-10-16T19:13:43.239Z,73.00
2022-10-16T19:16:21.413Z,72.17
2022-10-16T19:18:49.836Z,72.70
2022-10-16T19:21:17.719Z,72.69
2022-10-16T19:23:45.713Z,72.42
2022-10-16T19:26:15.096Z,71.86
2022-10-16T19:28:43.965Z,71.64
2022-10-16T19:31:15.133Z,72.30
2022-10-16T19:33:43.390Z,72.17
2022-10-16T19:36:13.026Z,72.81
2022-10-16T19:38:41.036Z,73.14
2022-10-16T19:41:10.046Z,72.65
2022-10-16T19:43:37.829Z,72.54
2022-10-16T19:46:06.356Z,72.05
2022-10-16T19:48:35.463Z,72.68
2022-10-16T19:51:03.497Z,72.14
2022-10-16T19:53:31.774Z,71.98
2022-10-16T19:55:59.958Z,72.98
2022-10-16T19:58:28.406Z,72.80
2022-10-16T20:00:55.819Z,72.83
2022-10-16T20:03:23.354Z,73.46
2022-10-16T20:05:53.113Z,72.59
2022-10-16T20:08:21.063Z,73.75
2022-10-16T20:10:49.855Z,74.23
2022-10-16T20:13:17.379Z,73.12
2022-10-16T20:15:44.796Z,72.71
2022-10-16T20:18:12.549Z,73.13
2022-10-16T20:20:40.239Z,75.48
2022-10-16T20:23:09.054Z,84.43
2022-10-16T20:25:36.855Z,83.78
2022-10-16T20:28:05.527Z,81.45
2022-10-16T20:30:35.504Z,77.08
2022-10-16T20:33:03.179Z,71.31
2022-10-16T20:35:35.965Z,71.88
2022-10-16T20:38:03.381Z,70.93
2022-10-16T20:40:34.597Z,74.25
2022-10-16T20:43:02.136Z,73.69
2022-10-16T20:45:29.933Z,73.47
2022-10-16T20:47:57.371Z,74.58
2022-10-16T20:50:25.218Z,75.33
2022-10-16T20:52:52.674Z,76.89
2022-10-16T20:55:20.049Z,74.67
2022-10-16T20:57:48.929Z,73.25
2022-10-16T21:00:17.285Z,71.77
2022-10-16T21:02:44.797Z,70.82
2022-10-16T21:05:12.208Z,71.88
2022-10-16T21:07:39.629Z,72.98
2022-10-16T21:10:07.855Z,71.63
2022-10-16T21:12:35.268Z,73.91
2022-10-16T21:15:19.461Z,73.72
2022-10-16T21:17:46.976Z,73.84
2022-10-16T21:20:14.460Z,74.33
2022-10-16T21:22:41.875Z,74.78
2022-10-16T21:25:09.524Z,74.99
2022-10-16T21:27:37.848Z,74.38
2022-10-16T21:30:08.896Z,74.71
2022-10-16T21:32:36.953Z,74.55
2022-10-16T21:35:05.596Z,75.05
2022-10-16T21:37:33.168Z,74.95
2022-10-16T21:40:00.696Z,74.56
2022-10-16T21:42:29.859Z,74.28
2022-10-16T21:44:57.502Z,75.37
2022-10-16T21:47:26.315Z,75.78
2022-10-16T21:49:53.735Z,75.14
2022-10-16T21:52:21.115Z,76.83
2022-10-16T21:54:48.505Z,75.65
2022-10-16T21:57:15.878Z,75.54
2022-10-16T21:59:43.570Z,74.90
2022-10-16T22:02:11.074Z,75.09
2022-10-16T22:04:39.817Z,74.96
2022-10-16T22:07:07.805Z,76.19
2022-10-16T22:09:35.270Z,75.33
2022-10-16T22:12:02.705Z,75.70
2022-10-16T22:14:30.228Z,75.70
2022-10-16T22:16:57.614Z,76.24
2022-10-16T22:19:25.111Z,74.91
2022-10-16T22:21:57.133Z,75.79
2022-10-16T22:24:25.554Z,75.87
2022-10-16T22:26:53.145Z,76.36
2022-10-16T22:29:22.721Z,76.78
2022-10-16T22:31:53.051Z,76.44
2022-10-16T22:34:20.722Z,77.59
2022-10-16T22:36:50.202Z,78.61
2022-10-16T22:39:19.611Z,78.22
2022-10-16T22:41:47.012Z,77.67
2022-10-16T22:44:14.648Z,77.28
2022-10-16T22:46:42.221Z,77.61
2022-10-16T22:49:09.637Z,77.67
2022-10-16T22:51:37.203Z,77.45
2022-10-16T22:54:04.902Z,78.11
2022-10-16T22:56:33.623Z,77.87
2022-10-16T22:59:01.184Z,77.52
2022-10-16T23:01:31.556Z,78.36
2022-10-16T23:04:01.219Z,78.25
2022-10-16T23:06:28.976Z,77.99
2022-10-16T23:08:58.953Z,78.62
2022-10-16T23:11:28.267Z,77.98
2022-10-16T23:13:57.122Z,77.84
2022-10-16T23:16:25.420Z,76.99
2022-10-16T23:18:53.114Z,76.28
2022-10-16T23:21:23.216Z,77.68
2022-10-16T23:23:57.562Z,77.29
2022-10-16T23:26:27.363Z,77.58
2022-10-16T23:28:56.812Z,77.18
2022-10-16T23:31:24.275Z,77.44
2022-10-16T23:33:51.648Z,76.95
2022-10-16T23:36:21.291Z,77.74
2022-10-16T23:38:49.542Z,77.74
2022-10-16T23:41:19.129Z,77.72
2022-10-16T23:43:46.737Z,77.44
2022-10-16T23:46:15.918Z,78.11
2022-10-16T23:48:44.174Z,78.12
2022-10-16T23:51:12.700Z,77.55
2022-10-16T23:53:40.668Z,77.01
2022-10-16T23:56:08.538Z,76.75
2022-10-16T23:58:37.778Z,77.49
